sensor_id;sensor_type;location;lat;lon;timestamp;P1;durP1;ratioP1;P2;durP2;ratioP2
10811;SDS011;5458;51.496;7.334;2022-12-07T00:01:12;37.85;;;27.58;;
10811;SDS011;5458;51.496;7.334;2022-12-07T00:03:43;32.63;;;26.15;;
10811;SDS011;5458;51.496;7.334;2022-12-07T00:06:10;36.28;;;26.48;;
10811;SDS011;5458;51.496;7.334;2022-12-07T00:08:37;32.47;;;24.70;;
10811;SDS011;5458;51.496;7.334;2022-12-07T00:11:04;31.60;;;23.67;;
10811;SDS011;5458;51.496;7.334;2022-12-07T00:13:32;33.72;;;24.00;;
10811;SDS011;5458;51.496;7.334;2022-12-07T00:16:00;31.08;;;22.67;;
10811;SDS011;5458;51.496;7.334;2022-12-07T00:18:36;30.42;;;24.75;;
10811;SDS011;5458;51.496;7.334;2022-12-07T00:21:06;30.63;;;23.50;;
10811;SDS011;5458;51.496;7.334;2022-12-07T00:23:37;31.75;;;23.90;;
10811;SDS011;5458;51.496;7.334;2022-12-07T00:26:04;30.40;;;24.23;;
10811;SDS011;5458;51.496;7.334;2022-12-07T00:28:30;32.72;;;23.35;;
10811;SDS011;5458;51.496;7.334;2022-12-07T00:31:03;32.28;;;23.35;;
10811;SDS011;5458;51.496;7.334;2022-12-07T00:33:30;33.30;;;23.45;;
10811;SDS011;5458;51.496;7.334;2022-12-07T00:35:57;30.35;;;22.85;;
10811;SDS011;5458;51.496;7.334;2022-12-07T00:38:23;31.13;;;23.63;;
10811;SDS011;5458;51.496;7.334;2022-12-07T00:40:59;31.63;;;23.45;;
10811;SDS011;5458;51.496;7.334;2022-12-07T00:43:26;29.27;;;23.17;;
10811;SDS011;5458;51.496;7.334;2022-12-07T00:45:52;30.10;;;24.23;;
10811;SDS011;5458;51.496;7.334;2022-12-07T00:48:18;29.80;;;23.65;;
10811;SDS011;5458;51.496;7.334;2022-12-07T00:50:44;33.03;;;23.17;;
10811;SDS011;5458;51.496;7.334;2022-12-07T00:53:10;29.98;;;23.45;;
10811;SDS011;5458;51.496;7.334;2022-12-07T00:55:35;35.33;;;24.40;;
10811;SDS011;5458;51.496;7.334;2022-12-07T00:58:01;29.50;;;22.80;;
10811;SDS011;5458;51.496;7.334;2022-12-07T01:00:28;29.33;;;21.05;;
10811;SDS011;5458;51.496;7.334;2022-12-07T01:02:53;32.65;;;23.67;;
10811;SDS011;5458;51.496;7.334;2022-12-07T01:05:19;31.15;;;23.70;;
10811;SDS011;5458;51.496;7.334;2022-12-07T01:07:45;28.83;;;22.57;;
10811;SDS011;5458;51.496;7.334;2022-12-07T01:10:11;26.52;;;21.92;;
10811;SDS011;5458;51.496;7.334;2022-12-07T01:12:37;28.63;;;21.63;;
10811;SDS011;5458;51.496;7.334;2022-12-07T01:15:03;27.75;;;22.75;;
10811;SDS011;5458;51.496;7.334;2022-12-07T01:17:29;26.45;;;22.45;;
10811;SDS011;5458;51.496;7.334;2022-12-07T01:19:55;27.88;;;23.27;;
10811;SDS011;5458;51.496;7.334;2022-12-07T01:22:20;29.58;;;23.30;;
10811;SDS011;5458;51.496;7.334;2022-12-07T01:24:46;32.08;;;23.88;;
10811;SDS011;5458;51.496;7.334;2022-12-07T01:27:12;29.80;;;24.13;;
10811;SDS011;5458;51.496;7.334;2022-12-07T01:29:38;30.97;;;23.67;;
10811;SDS011;5458;51.496;7.334;2022-12-07T01:32:04;30.17;;;23.48;;
10811;SDS011;5458;51.496;7.334;2022-12-07T01:34:29;29.17;;;24.33;;
10811;SDS011;5458;51.496;7.334;2022-12-07T01:36:55;30.02;;;24.13;;
10811;SDS011;5458;51.496;7.334;2022-12-07T01:39:21;30.05;;;23.73;;
10811;SDS011;5458;51.496;7.334;2022-12-07T01:41:47;31.73;;;24.75;;
10811;SDS011;5458;51.496;7.334;2022-12-07T01:44:23;32.25;;;24.65;;
10811;SDS011;5458;51.496;7.334;2022-12-07T01:46:55;33.22;;;24.23;;
10811;SDS011;5458;51.496;7.334;2022-12-07T01:50:05;33.28;;;24.13;;
10811;SDS011;5458;51.496;7.334;2022-12-07T01:52:15;32.15;;;25.15;;
10811;SDS011;5458;51.496;7.334;2022-12-07T01:54:46;31.42;;;25.05;;
10811;SDS011;5458;51.496;7.334;2022-12-07T01:57:14;30.63;;;24.70;;
10811;SDS011;5458;51.496;7.334;2022-12-07T01:59:42;32.88;;;25.95;;
10811;SDS011;5458;51.496;7.334;2022-12-07T02:02:26;31.42;;;24.80;;
10811;SDS011;5458;51.496;7.334;2022-12-07T02:04:56;33.55;;;24.52;;
10811;SDS011;5458;51.496;7.334;2022-12-07T02:07:24;32.28;;;25.15;;
10811;SDS011;5458;51.496;7.334;2022-12-07T02:09:50;30.20;;;22.80;;
10811;SDS011;5458;51.496;7.334;2022-12-07T02:12:16;30.42;;;23.60;;
10811;SDS011;5458;51.496;7.334;2022-12-07T02:14:42;27.45;;;22.80;;
10811;SDS011;5458;51.496;7.334;2022-12-07T02:25:13;28.55;;;24.48;;
10811;SDS011;5458;51.496;7.334;2022-12-07T02:28:07;34.60;;;23.58;;
10811;SDS011;5458;51.496;7.334;2022-12-07T02:30:37;32.00;;;24.42;;
10811;SDS011;5458;51.496;7.334;2022-12-07T02:33:13;25.98;;;22.38;;
10811;SDS011;5458;51.496;7.334;2022-12-07T02:36:02;33.20;;;24.00;;
10811;SDS011;5458;51.496;7.334;2022-12-07T02:38:40;27.95;;;23.08;;
10811;SDS011;5458;51.496;7.334;2022-12-07T02:41:16;31.77;;;23.40;;
10811;SDS011;5458;51.496;7.334;2022-12-07T02:43:55;32.03;;;24.17;;
10811;SDS011;5458;51.496;7.334;2022-12-07T02:46:32;30.38;;;25.10;;
10811;SDS011;5458;51.496;7.334;2022-12-07T02:49:05;33.30;;;24.20;;
10811;SDS011;5458;51.496;7.334;2022-12-07T02:51:33;28.97;;;23.57;;
10811;SDS011;5458;51.496;7.334;2022-12-07T02:53:59;29.48;;;23.60;;
10811;SDS011;5458;51.496;7.334;2022-12-07T02:56:30;30.50;;;24.00;;
10811;SDS011;5458;51.496;7.334;2022-12-07T03:01:51;26.33;;;22.58;;
10811;SDS011;5458;51.496;7.334;2022-12-07T03:07:21;30.88;;;23.23;;
10811;SDS011;5458;51.496;7.334;2022-12-07T03:13:02;27.92;;;22.63;;
10811;SDS011;5458;51.496;7.334;2022-12-07T03:18:20;29.27;;;22.33;;
10811;SDS011;5458;51.496;7.334;2022-12-07T03:20:48;27.67;;;21.87;;
10811;SDS011;5458;51.496;7.334;2022-12-07T03:23:18;29.95;;;22.15;;
10811;SDS011;5458;51.496;7.334;2022-12-07T03:25:47;28.77;;;22.08;;
10811;SDS011;5458;51.496;7.334;2022-12-07T03:28:17;27.73;;;21.15;;
10811;SDS011;5458;51.496;7.334;2022-12-07T03:30:52;25.88;;;21.50;;
10811;SDS011;5458;51.496;7.334;2022-12-07T03:33:28;27.00;;;20.90;;
10811;SDS011;5458;51.496;7.334;2022-12-07T03:36:11;28.10;;;21.50;;
10811;SDS011;5458;51.496;7.334;2022-12-07T03:38:45;29.10;;;20.88;;
10811;SDS011;5458;51.496;7.334;2022-12-07T03:41:19;23.10;;;19.48;;
10811;SDS011;5458;51.496;7.334;2022-12-07T03:43:49;24.83;;;20.07;;
10811;SDS011;5458;51.496;7.334;2022-12-07T03:49:11;26.50;;;20.75;;
10811;SDS011;5458;51.496;7.334;2022-12-07T03:52:02;27.60;;;21.33;;
10811;SDS011;5458;51.496;7.334;2022-12-07T03:54:47;27.23;;;20.70;;
10811;SDS011;5458;51.496;7.334;2022-12-07T03:57:18;27.30;;;21.50;;
10811;SDS011;5458;51.496;7.334;2022-12-07T03:59:45;29.60;;;22.33;;
10811;SDS011;5458;51.496;7.334;2022-12-07T04:02:12;29.15;;;22.00;;
10811;SDS011;5458;51.496;7.334;2022-12-07T04:04:38;28.13;;;21.35;;
10811;SDS011;5458;51.496;7.334;2022-12-07T04:07:04;25.57;;;21.20;;
10811;SDS011;5458;51.496;7.334;2022-12-07T04:09:30;27.43;;;21.40;;
10811;SDS011;5458;51.496;7.334;2022-12-07T04:11:55;26.40;;;20.38;;
10811;SDS011;5458;51.496;7.334;2022-12-07T04:14:21;28.98;;;20.92;;
10811;SDS011;5458;51.496;7.334;2022-12-07T04:16:54;28.33;;;20.52;;
10811;SDS011;5458;51.496;7.334;2022-12-07T04:19:25;24.60;;;19.93;;
10811;SDS011;5458;51.496;7.334;2022-12-07T04:21:52;25.98;;;19.75;;
10811;SDS011;5458;51.496;7.334;2022-12-07T04:24:18;25.73;;;20.02;;
10811;SDS011;5458;51.496;7.334;2022-12-07T04:26:45;23.73;;;19.98;;
10811;SDS011;5458;51.496;7.334;2022-12-07T04:29:11;22.67;;;19.05;;
10811;SDS011;5458;51.496;7.334;2022-12-07T04:31:38;27.00;;;19.38;;
10811;SDS011;5458;51.496;7.334;2022-12-07T04:34:04;26.15;;;19.77;;
10811;SDS011;5458;51.496;7.334;2022-12-07T04:36:30;21.38;;;18.92;;
10811;SDS011;5458;51.496;7.334;2022-12-07T04:38:57;22.30;;;18.67;;
10811;SDS011;5458;51.496;7.334;2022-12-07T04:41:23;22.50;;;18.80;;
10811;SDS011;5458;51.496;7.334;2022-12-07T04:43:55;25.45;;;18.50;;
10811;SDS011;5458;51.496;7.334;2022-12-07T04:46:22;21.73;;;17.90;;
10811;SDS011;5458;51.496;7.334;2022-12-07T04:48:49;23.35;;;17.85;;
10811;SDS011;5458;51.496;7.334;2022-12-07T04:51:15;20.45;;;17.00;;
10811;SDS011;5458;51.496;7.334;2022-12-07T04:53:45;23.13;;;17.23;;
10811;SDS011;5458;51.496;7.334;2022-12-07T04:56:10;24.23;;;18.50;;
10811;SDS011;5458;51.496;7.334;2022-12-07T04:58:36;26.67;;;18.20;;
10811;SDS011;5458;51.496;7.334;2022-12-07T05:01:01;23.60;;;19.08;;
10811;SDS011;5458;51.496;7.334;2022-12-07T05:03:27;25.92;;;18.63;;
10811;SDS011;5458;51.496;7.334;2022-12-07T05:05:52;25.08;;;18.67;;
10811;SDS011;5458;51.496;7.334;2022-12-07T05:08:18;25.10;;;17.33;;
10811;SDS011;5458;51.496;7.334;2022-12-07T05:10:44;23.38;;;18.02;;
10811;SDS011;5458;51.496;7.334;2022-12-07T05:13:09;25.27;;;18.83;;
10811;SDS011;5458;51.496;7.334;2022-12-07T05:15:35;25.98;;;18.67;;
10811;SDS011;5458;51.496;7.334;2022-12-07T05:18:00;26.20;;;19.67;;
10811;SDS011;5458;51.496;7.334;2022-12-07T05:20:26;21.98;;;17.85;;
10811;SDS011;5458;51.496;7.334;2022-12-07T05:22:51;23.87;;;19.53;;
10811;SDS011;5458;51.496;7.334;2022-12-07T05:25:17;24.43;;;18.47;;
10811;SDS011;5458;51.496;7.334;2022-12-07T05:27:43;25.50;;;18.77;;
10811;SDS011;5458;51.496;7.334;2022-12-07T05:30:08;21.73;;;17.70;;
10811;SDS011;5458;51.496;7.334;2022-12-07T05:32:34;24.50;;;18.50;;
10811;SDS011;5458;51.496;7.334;2022-12-07T05:35:00;23.70;;;18.45;;
10811;SDS011;5458;51.496;7.334;2022-12-07T05:37:25;21.60;;;17.33;;
10811;SDS011;5458;51.496;7.334;2022-12-07T05:39:51;25.83;;;19.53;;
10811;SDS011;5458;51.496;7.334;2022-12-07T05:42:16;23.23;;;18.13;;
10811;SDS011;5458;51.496;7.334;2022-12-07T05:44:43;23.92;;;17.73;;
10811;SDS011;5458;51.496;7.334;2022-12-07T05:47:10;25.00;;;18.40;;
10811;SDS011;5458;51.496;7.334;2022-12-07T05:49:36;22.15;;;17.65;;
10811;SDS011;5458;51.496;7.334;2022-12-07T05:52:02;24.55;;;17.77;;
10811;SDS011;5458;51.496;7.334;2022-12-07T05:54:28;27.05;;;18.05;;
10811;SDS011;5458;51.496;7.334;2022-12-07T05:56:54;19.45;;;16.85;;
10811;SDS011;5458;51.496;7.334;2022-12-07T05:59:20;19.52;;;16.02;;
10811;SDS011;5458;51.496;7.334;2022-12-07T06:04:21;28.20;;;17.35;;
10811;SDS011;5458;51.496;7.334;2022-12-07T06:06:47;29.15;;;17.45;;
10811;SDS011;5458;51.496;7.334;2022-12-07T06:09:13;22.40;;;16.33;;
10811;SDS011;5458;51.496;7.334;2022-12-07T06:11:40;20.05;;;16.48;;
10811;SDS011;5458;51.496;7.334;2022-12-07T06:14:25;23.10;;;16.52;;
10811;SDS011;5458;51.496;7.334;2022-12-07T06:16:50;21.08;;;16.55;;
10811;SDS011;5458;51.496;7.334;2022-12-07T06:19:16;24.23;;;17.10;;
10811;SDS011;5458;51.496;7.334;2022-12-07T06:21:42;20.85;;;16.15;;
10811;SDS011;5458;51.496;7.334;2022-12-07T06:24:09;21.60;;;16.90;;
10811;SDS011;5458;51.496;7.334;2022-12-07T06:26:39;23.38;;;16.63;;
10811;SDS011;5458;51.496;7.334;2022-12-07T06:29:05;24.20;;;18.07;;
10811;SDS011;5458;51.496;7.334;2022-12-07T06:31:31;26.10;;;18.02;;
10811;SDS011;5458;51.496;7.334;2022-12-07T06:33:58;27.17;;;18.00;;
10811;SDS011;5458;51.496;7.334;2022-12-07T06:36:25;24.63;;;16.80;;
10811;SDS011;5458;51.496;7.334;2022-12-07T06:38:51;24.23;;;18.70;;
10811;SDS011;5458;51.496;7.334;2022-12-07T06:41:17;23.23;;;17.35;;
10811;SDS011;5458;51.496;7.334;2022-12-07T06:43:43;24.75;;;17.50;;
10811;SDS011;5458;51.496;7.334;2022-12-07T06:46:08;27.25;;;16.23;;
10811;SDS011;5458;51.496;7.334;2022-12-07T06:48:34;21.60;;;16.97;;
10811;SDS011;5458;51.496;7.334;2022-12-07T06:50:59;22.75;;;16.60;;
10811;SDS011;5458;51.496;7.334;2022-12-07T06:53:25;20.55;;;16.55;;
10811;SDS011;5458;51.496;7.334;2022-12-07T06:55:50;22.42;;;15.00;;
10811;SDS011;5458;51.496;7.334;2022-12-07T06:58:16;21.90;;;14.83;;
10811;SDS011;5458;51.496;7.334;2022-12-07T07:00:42;20.02;;;14.85;;
10811;SDS011;5458;51.496;7.334;2022-12-07T07:03:08;23.57;;;14.13;;
10811;SDS011;5458;51.496;7.334;2022-12-07T07:05:34;16.13;;;13.02;;
10811;SDS011;5458;51.496;7.334;2022-12-07T07:07:59;17.73;;;13.50;;
10811;SDS011;5458;51.496;7.334;2022-12-07T07:10:25;22.52;;;13.30;;
10811;SDS011;5458;51.496;7.334;2022-12-07T07:12:51;17.07;;;13.50;;
10811;SDS011;5458;51.496;7.334;2022-12-07T07:15:16;24.93;;;15.13;;
10811;SDS011;5458;51.496;7.334;2022-12-07T07:17:42;16.30;;;13.20;;
10811;SDS011;5458;51.496;7.334;2022-12-07T07:20:08;17.08;;;12.52;;
10811;SDS011;5458;51.496;7.334;2022-12-07T07:22:34;20.95;;;14.65;;
10811;SDS011;5458;51.496;7.334;2022-12-07T07:24:59;17.75;;;12.48;;
10811;SDS011;5458;51.496;7.334;2022-12-07T07:27:25;17.65;;;12.65;;
10811;SDS011;5458;51.496;7.334;2022-12-07T07:29:50;17.60;;;12.68;;
10811;SDS011;5458;51.496;7.334;2022-12-07T07:32:16;17.48;;;12.77;;
10811;SDS011;5458;51.496;7.334;2022-12-07T07:34:42;14.13;;;11.70;;
10811;SDS011;5458;51.496;7.334;2022-12-07T07:37:07;16.73;;;12.43;;
10811;SDS011;5458;51.496;7.334;2022-12-07T07:39:33;18.98;;;12.35;;
10811;SDS011;5458;51.496;7.334;2022-12-07T07:41:58;15.95;;;11.40;;
10811;SDS011;5458;51.496;7.334;2022-12-07T07:44:24;15.40;;;11.13;;
10811;SDS011;5458;51.496;7.334;2022-12-07T07:46:49;20.15;;;12.13;;
10811;SDS011;5458;51.496;7.334;2022-12-07T07:49:15;16.48;;;11.95;;
10811;SDS011;5458;51.496;7.334;2022-12-07T07:51:40;15.13;;;10.87;;
10811;SDS011;5458;51.496;7.334;2022-12-07T07:54:06;15.77;;;12.02;;
10811;SDS011;5458;51.496;7.334;2022-12-07T07:56:31;16.23;;;11.63;;
10811;SDS011;5458;51.496;7.334;2022-12-07T07:58:57;16.52;;;11.20;;
10811;SDS011;5458;51.496;7.334;2022-12-07T08:01:22;12.30;;;10.98;;
10811;SDS011;5458;51.496;7.334;2022-12-07T08:03:48;17.65;;;10.63;;
10811;SDS011;5458;51.496;7.334;2022-12-07T08:06:14;16.95;;;10.30;;
10811;SDS011;5458;51.496;7.334;2022-12-07T08:08:40;13.77;;;10.40;;
10811;SDS011;5458;51.496;7.334;2022-12-07T08:11:06;16.23;;;11.00;;
10811;SDS011;5458;51.496;7.334;2022-12-07T08:13:33;14.43;;;11.02;;
10811;SDS011;5458;51.496;7.334;2022-12-07T08:16:03;16.33;;;10.37;;
10811;SDS011;5458;51.496;7.334;2022-12-07T08:18:29;17.75;;;10.63;;
10811;SDS011;5458;51.496;7.334;2022-12-07T08:20:58;14.10;;;9.93;;
10811;SDS011;5458;51.496;7.334;2022-12-07T08:23:25;11.80;;;9.00;;
10811;SDS011;5458;51.496;7.334;2022-12-07T08:25:51;12.18;;;9.15;;
10811;SDS011;5458;51.496;7.334;2022-12-07T08:28:17;17.03;;;9.87;;
10811;SDS011;5458;51.496;7.334;2022-12-07T08:30:42;14.33;;;8.93;;
10811;SDS011;5458;51.496;7.334;2022-12-07T08:33:09;10.20;;;8.98;;
10811;SDS011;5458;51.496;7.334;2022-12-07T08:35:35;13.43;;;8.52;;
10811;SDS011;5458;51.496;7.334;2022-12-07T08:38:01;14.50;;;8.63;;
10811;SDS011;5458;51.496;7.334;2022-12-07T08:40:28;11.88;;;8.27;;
10811;SDS011;5458;51.496;7.334;2022-12-07T08:42:54;14.23;;;8.80;;
10811;SDS011;5458;51.496;7.334;2022-12-07T08:45:20;12.30;;;8.43;;
10811;SDS011;5458;51.496;7.334;2022-12-07T08:47:49;12.85;;;9.55;;
10811;SDS011;5458;51.496;7.334;2022-12-07T08:50:27;16.45;;;9.52;;
10811;SDS011;5458;51.496;7.334;2022-12-07T08:52:54;15.05;;;9.80;;
10811;SDS011;5458;51.496;7.334;2022-12-07T08:55:22;14.55;;;9.68;;
10811;SDS011;5458;51.496;7.334;2022-12-07T08:57:48;15.40;;;9.30;;
10811;SDS011;5458;51.496;7.334;2022-12-07T09:00:14;13.82;;;8.88;;
10811;SDS011;5458;51.496;7.334;2022-12-07T09:02:41;13.90;;;9.00;;
10811;SDS011;5458;51.496;7.334;2022-12-07T09:05:08;14.88;;;9.23;;
10811;SDS011;5458;51.496;7.334;2022-12-07T09:07:34;14.02;;;9.60;;
10811;SDS011;5458;51.496;7.334;2022-12-07T09:10:01;12.98;;;9.45;;
10811;SDS011;5458;51.496;7.334;2022-12-07T09:12:27;16.23;;;9.63;;
10811;SDS011;5458;51.496;7.334;2022-12-07T09:14:53;20.88;;;10.57;;
10811;SDS011;5458;51.496;7.334;2022-12-07T09:17:18;14.90;;;10.00;;
10811;SDS011;5458;51.496;7.334;2022-12-07T09:19:44;16.02;;;10.20;;
10811;SDS011;5458;51.496;7.334;2022-12-07T09:22:09;14.18;;;10.07;;
10811;SDS011;5458;51.496;7.334;2022-12-07T09:24:35;14.05;;;9.02;;
10811;SDS011;5458;51.496;7.334;2022-12-07T09:27:01;12.85;;;9.10;;
10811;SDS011;5458;51.496;7.334;2022-12-07T09:29:26;13.32;;;9.30;;
10811;SDS011;5458;51.496;7.334;2022-12-07T09:31:52;17.55;;;9.10;;
10811;SDS011;5458;51.496;7.334;2022-12-07T09:34:18;15.05;;;9.05;;
10811;SDS011;5458;51.496;7.334;2022-12-07T09:36:44;14.98;;;9.70;;
10811;SDS011;5458;51.496;7.334;2022-12-07T09:39:09;13.02;;;9.40;;
10811;SDS011;5458;51.496;7.334;2022-12-07T09:41:38;15.60;;;10.23;;
10811;SDS011;5458;51.496;7.334;2022-12-07T09:44:06;11.52;;;9.65;;
10811;SDS011;5458;51.496;7.334;2022-12-07T09:46:39;19.45;;;10.50;;
10811;SDS011;5458;51.496;7.334;2022-12-07T09:49:09;15.88;;;10.95;;
10811;SDS011;5458;51.496;7.334;2022-12-07T09:51:39;20.45;;;11.52;;
10811;SDS011;5458;51.496;7.334;2022-12-07T09:54:05;20.42;;;12.02;;
10811;SDS011;5458;51.496;7.334;2022-12-07T09:56:31;16.88;;;11.48;;
10811;SDS011;5458;51.496;7.334;2022-12-07T09:59:00;17.65;;;12.07;;
10811;SDS011;5458;51.496;7.334;2022-12-07T10:01:28;17.80;;;12.13;;
10811;SDS011;5458;51.496;7.334;2022-12-07T10:04:01;18.02;;;11.50;;
10811;SDS011;5458;51.496;7.334;2022-12-07T10:06:41;15.05;;;11.70;;
10811;SDS011;5458;51.496;7.334;2022-12-07T10:09:11;16.88;;;10.80;;
10811;SDS011;5458;51.496;7.334;2022-12-07T10:14:27;15.57;;;11.15;;
10811;SDS011;5458;51.496;7.334;2022-12-07T10:16:55;14.23;;;10.52;;
10811;SDS011;5458;51.496;7.334;2022-12-07T10:22:10;15.68;;;10.95;;
10811;SDS011;5458;51.496;7.334;2022-12-07T10:24:38;14.02;;;10.18;;
10811;SDS011;5458;51.496;7.334;2022-12-07T10:27:16;15.85;;;11.02;;
10811;SDS011;5458;51.496;7.334;2022-12-07T10:29:43;9.93;;;8.93;;
10811;SDS011;5458;51.496;7.334;2022-12-07T10:34:40;11.38;;;9.40;;
10811;SDS011;5458;51.496;7.334;2022-12-07T10:37:16;17.10;;;8.85;;
10811;SDS011;5458;51.496;7.334;2022-12-07T10:39:51;15.70;;;9.80;;
10811;SDS011;5458;51.496;7.334;2022-12-07T10:42:25;18.20;;;9.40;;
10811;SDS011;5458;51.496;7.334;2022-12-07T10:50:41;14.25;;;7.97;;
10811;SDS011;5458;51.496;7.334;2022-12-07T10:55:47;14.80;;;8.07;;
10811;SDS011;5458;51.496;7.334;2022-12-07T11:01:06;9.70;;;7.22;;
10811;SDS011;5458;51.496;7.334;2022-12-07T11:22:57;15.25;;;9.18;;
10811;SDS011;5458;51.496;7.334;2022-12-07T11:25:47;13.20;;;7.18;;
10811;SDS011;5458;51.496;7.334;2022-12-07T11:28:40;12.48;;;7.40;;
10811;SDS011;5458;51.496;7.334;2022-12-07T11:33:53;11.48;;;6.63;;
10811;SDS011;5458;51.496;7.334;2022-12-07T11:39:28;10.50;;;6.15;;
10811;SDS011;5458;51.496;7.334;2022-12-07T11:44:47;8.57;;;6.43;;
10811;SDS011;5458;51.496;7.334;2022-12-07T11:47:38;12.07;;;6.78;;
10811;SDS011;5458;51.496;7.334;2022-12-07T12:01:26;11.80;;;6.07;;
10811;SDS011;5458;51.496;7.334;2022-12-07T12:06:36;7.55;;;5.13;;
10811;SDS011;5458;51.496;7.334;2022-12-07T12:11:36;8.68;;;5.72;;
10811;SDS011;5458;51.496;7.334;2022-12-07T12:21:49;10.32;;;4.63;;
10811;SDS011;5458;51.496;7.334;2022-12-07T12:24:25;7.10;;;5.30;;
10811;SDS011;5458;51.496;7.334;2022-12-07T12:27:04;10.43;;;5.07;;
10811;SDS011;5458;51.496;7.334;2022-12-07T12:29:35;10.00;;;4.95;;
10811;SDS011;5458;51.496;7.334;2022-12-07T12:32:22;8.10;;;4.57;;
10811;SDS011;5458;51.496;7.334;2022-12-07T12:37:46;8.43;;;4.35;;
10811;SDS011;5458;51.496;7.334;2022-12-07T12:42:47;8.27;;;4.50;;
10811;SDS011;5458;51.496;7.334;2022-12-07T12:45:19;11.02;;;4.57;;
10811;SDS011;5458;51.496;7.334;2022-12-07T12:51:35;9.85;;;4.75;;
10811;SDS011;5458;51.496;7.334;2022-12-07T12:54:10;7.53;;;4.07;;
10811;SDS011;5458;51.496;7.334;2022-12-07T12:59:33;6.65;;;3.42;;
10811;SDS011;5458;51.496;7.334;2022-12-07T13:02:16;8.00;;;3.67;;
10811;SDS011;5458;51.496;7.334;2022-12-07T13:18:01;7.22;;;2.88;;
10811;SDS011;5458;51.496;7.334;2022-12-07T13:29:30;5.97;;;4.05;;
10811;SDS011;5458;51.496;7.334;2022-12-07T13:34:34;5.50;;;3.10;;
10811;SDS011;5458;51.496;7.334;2022-12-07T13:39:52;6.70;;;3.45;;
10811;SDS011;5458;51.496;7.334;2022-12-07T13:42:27;4.82;;;3.22;;
10811;SDS011;5458;51.496;7.334;2022-12-07T13:44:59;7.05;;;3.55;;
10811;SDS011;5458;51.496;7.334;2022-12-07T13:49:57;7.90;;;3.60;;
10811;SDS011;5458;51.496;7.334;2022-12-07T13:52:24;6.28;;;3.33;;
10811;SDS011;5458;51.496;7.334;2022-12-07T13:54:58;8.80;;;3.50;;
10811;SDS011;5458;51.496;7.334;2022-12-07T13:57:31;8.40;;;3.67;;
10811;SDS011;5458;51.496;7.334;2022-12-07T14:00:00;10.88;;;3.42;;
10811;SDS011;5458;51.496;7.334;2022-12-07T14:02:34;8.35;;;3.85;;
10811;SDS011;5458;51.496;7.334;2022-12-07T14:05:10;9.35;;;3.92;;
10811;SDS011;5458;51.496;7.334;2022-12-07T14:08:40;9.02;;;3.85;;
10811;SDS011;5458;51.496;7.334;2022-12-07T14:13:50;10.82;;;3.38;;
10811;SDS011;5458;51.496;7.334;2022-12-07T14:15:56;7.20;;;3.00;;
10811;SDS011;5458;51.496;7.334;2022-12-07T14:21:05;2.72;;;2.08;;
10811;SDS011;5458;51.496;7.334;2022-12-07T14:23:33;8.27;;;3.10;;
10811;SDS011;5458;51.496;7.334;2022-12-07T14:26:12;6.80;;;3.28;;
10811;SDS011;5458;51.496;7.334;2022-12-07T14:28:39;3.45;;;2.28;;
10811;SDS011;5458;51.496;7.334;2022-12-07T14:31:11;7.72;;;3.22;;
10811;SDS011;5458;51.496;7.334;2022-12-07T14:33:38;3.50;;;2.65;;
10811;SDS011;5458;51.496;7.334;2022-12-07T14:36:05;5.13;;;3.17;;
10811;SDS011;5458;51.496;7.334;2022-12-07T14:38:30;3.55;;;3.25;;
10811;SDS011;5458;51.496;7.334;2022-12-07T14:40:56;6.57;;;4.55;;
10811;SDS011;5458;51.496;7.334;2022-12-07T14:43:42;7.47;;;6.75;;
10811;SDS011;5458;51.496;7.334;2022-12-07T14:46:08;8.30;;;7.57;;
10811;SDS011;5458;51.496;7.334;2022-12-07T14:48:34;9.77;;;8.85;;
10811;SDS011;5458;51.496;7.334;2022-12-07T14:51:00;45.65;;;30.58;;
10811;SDS011;5458;51.496;7.334;2022-12-07T14:53:28;46.55;;;29.52;;
10811;SDS011;5458;51.496;7.334;2022-12-07T14:56:00;42.90;;;28.75;;
10811;SDS011;5458;51.496;7.334;2022-12-07T14:58:26;25.98;;;16.67;;
10811;SDS011;5458;51.496;7.334;2022-12-07T15:00:52;10.05;;;8.60;;
10811;SDS011;5458;51.496;7.334;2022-12-07T15:03:17;11.93;;;7.10;;
10811;SDS011;5458;51.496;7.334;2022-12-07T15:05:43;9.73;;;8.73;;
10811;SDS011;5458;51.496;7.334;2022-12-07T15:08:10;7.45;;;6.68;;
10811;SDS011;5458;51.496;7.334;2022-12-07T15:10:37;8.52;;;7.43;;
10811;SDS011;5458;51.496;7.334;2022-12-07T15:13:04;9.93;;;6.70;;
10811;SDS011;5458;51.496;7.334;2022-12-07T15:15:49;10.30;;;7.93;;
10811;SDS011;5458;51.496;7.334;2022-12-07T15:18:16;7.97;;;6.50;;
10811;SDS011;5458;51.496;7.334;2022-12-07T15:20:42;7.78;;;5.97;;
10811;SDS011;5458;51.496;7.334;2022-12-07T15:23:08;7.45;;;5.28;;
10811;SDS011;5458;51.496;7.334;2022-12-07T15:25:34;9.25;;;5.32;;
10811;SDS011;5458;51.496;7.334;2022-12-07T15:28:00;9.13;;;5.95;;
10811;SDS011;5458;51.496;7.334;2022-12-07T15:30:26;10.48;;;7.53;;
10811;SDS011;5458;51.496;7.334;2022-12-07T15:32:52;9.50;;;7.53;;
10811;SDS011;5458;51.496;7.334;2022-12-07T15:35:18;8.88;;;6.00;;
10811;SDS011;5458;51.496;7.334;2022-12-07T15:37:44;9.57;;;7.50;;
10811;SDS011;5458;51.496;7.334;2022-12-07T15:40:12;11.50;;;8.00;;
10811;SDS011;5458;51.496;7.334;2022-12-07T15:42:38;9.63;;;6.60;;
10811;SDS011;5458;51.496;7.334;2022-12-07T15:45:05;7.63;;;6.70;;
10811;SDS011;5458;51.496;7.334;2022-12-07T15:47:34;12.90;;;9.43;;
10811;SDS011;5458;51.496;7.334;2022-12-07T15:50:04;25.70;;;16.97;;
10811;SDS011;5458;51.496;7.334;2022-12-07T15:52:32;15.35;;;11.52;;
10811;SDS011;5458;51.496;7.334;2022-12-07T15:54:58;16.13;;;9.00;;
10811;SDS011;5458;51.496;7.334;2022-12-07T15:57:25;13.93;;;7.75;;
10811;SDS011;5458;51.496;7.334;2022-12-07T15:59:51;12.57;;;8.38;;
10811;SDS011;5458;51.496;7.334;2022-12-07T16:02:17;11.50;;;9.80;;
10811;SDS011;5458;51.496;7.334;2022-12-07T16:04:42;16.05;;;9.93;;
10811;SDS011;5458;51.496;7.334;2022-12-07T16:07:08;15.88;;;11.38;;
10811;SDS011;5458;51.496;7.334;2022-12-07T16:09:36;19.55;;;11.18;;
10811;SDS011;5458;51.496;7.334;2022-12-07T16:12:02;12.80;;;10.10;;
10811;SDS011;5458;51.496;7.334;2022-12-07T16:14:27;15.25;;;9.95;;
10811;SDS011;5458;51.496;7.334;2022-12-07T16:16:53;13.50;;;9.32;;
10811;SDS011;5458;51.496;7.334;2022-12-07T16:19:19;15.13;;;9.23;;
10811;SDS011;5458;51.496;7.334;2022-12-07T16:21:45;13.02;;;8.93;;
10811;SDS011;5458;51.496;7.334;2022-12-07T16:24:10;10.60;;;7.70;;
10811;SDS011;5458;51.496;7.334;2022-12-07T16:26:37;12.45;;;8.25;;
10811;SDS011;5458;51.496;7.334;2022-12-07T16:29:03;13.20;;;8.07;;
10811;SDS011;5458;51.496;7.334;2022-12-07T16:31:28;10.07;;;7.25;;
10811;SDS011;5458;51.496;7.334;2022-12-07T16:33:54;10.02;;;7.90;;
10811;SDS011;5458;51.496;7.334;2022-12-07T16:36:21;11.43;;;7.93;;
10811;SDS011;5458;51.496;7.334;2022-12-07T16:38:50;8.50;;;7.60;;
10811;SDS011;5458;51.496;7.334;2022-12-07T16:41:15;12.00;;;7.63;;
10811;SDS011;5458;51.496;7.334;2022-12-07T16:43:41;13.40;;;7.68;;
10811;SDS011;5458;51.496;7.334;2022-12-07T16:46:07;9.02;;;6.70;;
10811;SDS011;5458;51.496;7.334;2022-12-07T16:48:37;10.85;;;6.97;;
10811;SDS011;5458;51.496;7.334;2022-12-07T16:51:04;10.38;;;7.07;;
10811;SDS011;5458;51.496;7.334;2022-12-07T16:53:33;9.80;;;6.97;;
10811;SDS011;5458;51.496;7.334;2022-12-07T16:55:59;10.70;;;6.18;;
10811;SDS011;5458;51.496;7.334;2022-12-07T16:58:24;8.30;;;6.22;;
10811;SDS011;5458;51.496;7.334;2022-12-07T17:00:50;11.15;;;6.50;;
10811;SDS011;5458;51.496;7.334;2022-12-07T17:03:16;9.68;;;7.40;;
10811;SDS011;5458;51.496;7.334;2022-12-07T17:05:42;9.38;;;6.38;;
10811;SDS011;5458;51.496;7.334;2022-12-07T17:08:09;8.43;;;6.82;;
10811;SDS011;5458;51.496;7.334;2022-12-07T17:10:36;8.65;;;7.03;;
10811;SDS011;5458;51.496;7.334;2022-12-07T17:13:03;10.05;;;7.30;;